Time;durP1;ratioP1;P1;durP2;ratioP2;P2;SDS_P1;SDS_P2;PMS_P1;PMS_P2;Temp;Humidity;BMP_temperature;BMP_pressure;BME280_temperature;BME280_humidity;BME280_pressure;Samples;Min_cycle;Max_cycle;Signal;HPM_P1;HPM_P2
2023/09/17 00:02:17;;;;;;;12.68;6.70;;;18.60;99.90;;;;;;5072050;28;20550;-39
2023/09/17 00:04:42;;;;;;;8.70;6.68;;;18.60;99.90;;;;;;5071030;28;20024;-46
2023/09/17 00:07:09;;;;;;;10.73;6.63;;;18.50;99.90;;;;;;5070361;28;20020;-41
2023/09/17 00:09:35;;;;;;;11.80;7.13;;;18.50;99.90;;;;;;5070765;28;20427;-38
2023/09/17 00:12:01;;;;;;;9.80;6.78;;;18.50;99.90;;;;;;5069930;28;20074;-41
2023/09/17 00:14:27;;;;;;;7.80;5.22;;;18.50;99.90;;;;;;5065184;28;20429;-39
2023/09/17 00:16:52;;;;;;;10.60;6.78;;;18.50;99.90;;;;;;5068102;28;20029;-54
2023/09/17 00:19:19;;;;;;;11.48;6.45;;;18.60;99.90;;;;;;5069573;28;20027;-48
2023/09/17 00:21:45;;;;;;;8.88;5.72;;;18.50;99.90;;;;;;5068990;28;20111;-53
2023/09/17 00:24:12;;;;;;;10.30;6.35;;;18.50;99.90;;;;;;5067118;28;20096;-50
2023/09/17 00:26:37;;;;;;;8.63;4.47;;;18.60;99.90;;;;;;5070885;28;20043;-53
2023/09/17 00:29:03;;;;;;;12.05;6.43;;;18.60;99.90;;;;;;5070170;28;20397;-54
2023/09/17 00:31:29;;;;;;;13.75;7.43;;;18.70;99.90;;;;;;5070672;28;20025;-51
2023/09/17 00:33:55;;;;;;;11.38;6.20;;;18.70;99.90;;;;;;5067948;28;20024;-54
2023/09/17 00:36:21;;;;;;;7.72;6.35;;;18.60;99.90;;;;;;5070458;28;20078;-54
2023/09/17 00:38:46;;;;;;;11.77;6.82;;;18.60;99.90;;;;;;5067790;28;20020;-53
2023/09/17 00:41:12;;;;;;;9.77;7.22;;;18.60;99.90;;;;;;5072330;28;20036;-53
2023/09/17 00:43:38;;;;;;;8.50;6.80;;;18.60;99.90;;;;;;5070505;28;20108;-53
2023/09/17 00:46:04;;;;;;;10.30;7.43;;;18.60;99.90;;;;;;5072030;28;20017;-39
2023/09/17 00:48:31;;;;;;;11.38;7.50;;;18.60;99.90;;;;;;5076705;28;20032;-42
2023/09/17 00:50:57;;;;;;;8.32;6.72;;;18.60;99.90;;;;;;5076936;28;20032;-40
2023/09/17 00:53:24;;;;;;;7.47;6.00;;;18.60;99.90;;;;;;5076588;28;20032;-41
2023/09/17 00:55:51;;;;;;;13.60;5.57;;;18.70;99.90;;;;;;5074746;28;20021;-43
2023/09/17 00:58:17;;;;;;;7.90;5.78;;;18.60;99.90;;;;;;5073395;28;20021;-42
2023/09/17 01:00:43;;;;;;;10.40;6.20;;;18.70;99.90;;;;;;5075030;28;20078;-40
2023/09/17 01:03:12;;;;;;;10.95;6.32;;;18.70;99.90;;;;;;5075984;28;20020;-44
2023/09/17 01:05:42;;;;;;;12.25;7.60;;;18.60;99.90;;;;;;5075205;28;20036;-38
2023/09/17 01:08:09;;;;;;;7.10;6.30;;;18.60;99.90;;;;;;5075797;28;20028;-39
2023/09/17 01:10:35;;;;;;;9.40;7.27;;;18.60;99.90;;;;;;5075024;28;20054;-41
2023/09/17 01:13:03;;;;;;;9.30;6.35;;;18.60;99.90;;;;;;5076031;28;20035;-38
2023/09/17 01:15:29;;;;;;;8.52;6.80;;;18.60;99.90;;;;;;5076314;28;20388;-38
2023/09/17 01:17:57;;;;;;;9.07;6.63;;;18.60;99.90;;;;;;5072963;28;20024;-41
2023/09/17 01:20:28;;;;;;;;;;;18.60;99.90;;;;;;5076396;28;20055;-39
2023/09/17 01:22:59;;;;;;;9.70;6.68;;;18.60;99.90;;;;;;5076278;28;20373;-39
2023/09/17 01:25:46;;;;;;;11.82;7.28;;;18.60;99.90;;;;;;5074362;28;20025;-39
2023/09/17 01:28:13;;;;;;;11.93;6.68;;;18.50;99.90;;;;;;5075940;28;20024;-43
2023/09/17 01:30:45;;;;;;;12.90;7.35;;;18.50;99.90;;;;;;5075852;28;20036;-41
2023/09/17 01:33:11;;;;;;;9.38;7.25;;;18.40;99.90;;;;;;5075317;28;20055;-39
2023/09/17 01:35:57;;;;;;;9.57;6.70;;;18.40;99.90;;;;;;5074380;28;20117;-39
2023/09/17 01:38:32;;;;;;;11.75;6.97;;;18.40;99.90;;;;;;5072168;28;20077;-39
2023/09/17 01:41:03;;;;;;;9.30;7.43;;;18.30;99.90;;;;;;5065115;28;20017;-39
2023/09/17 01:43:30;;;;;;;10.93;7.03;;;18.30;99.90;;;;;;5075026;28;20035;-39
2023/09/17 01:45:55;;;;;;;8.88;7.25;;;18.20;99.90;;;;;;5075338;28;20123;-40
2023/09/17 01:48:22;;;;;;;10.57;7.43;;;18.20;99.90;;;;;;5075514;28;20158;-41
2023/09/17 01:50:50;;;;;;;9.20;7.33;;;18.20;99.90;;;;;;5073665;28;20051;-41
2023/09/17 01:53:16;;;;;;;12.95;7.53;;;18.20;99.90;;;;;;5073145;28;20350;-39
2023/09/17 01:55:42;;;;;;;10.10;7.00;;;18.30;99.90;;;;;;5072314;28;20025;-38
2023/09/17 01:58:10;;;;;;;10.10;6.93;;;18.20;99.90;;;;;;5071169;28;20516;-38
2023/09/17 02:00:36;;;;;;;13.45;8.77;;;18.20;99.90;;;;;;5074906;28;20020;-39
2023/09/17 02:03:05;;;;;;;13.07;6.43;;;18.30;99.90;;;;;;5074285;28;20024;-39
2023/09/17 02:05:31;;;;;;;9.73;7.28;;;18.30;99.90;;;;;;5073038;28;20021;-39
2023/09/17 02:07:56;;;;;;;12.68;7.28;;;18.40;99.90;;;;;;5068916;28;20024;-38
2023/09/17 02:10:22;;;;;;;12.93;7.68;;;18.40;99.90;;;;;;5070313;28;20479;-40
2023/09/17 02:12:47;;;;;;;9.63;7.28;;;18.30;99.90;;;;;;5062836;28;20119;-39
2023/09/17 02:15:14;;;;;;;15.15;7.85;;;18.30;99.90;;;;;;5062698;28;20020;-39
2023/09/17 02:17:41;;;;;;;9.20;7.32;;;18.20;99.90;;;;;;5068864;28;20029;-41
2023/09/17 02:20:11;;;;;;;11.48;7.55;;;18.20;99.90;;;;;;5069868;28;20386;-39
2023/09/17 02:22:39;;;;;;;12.10;7.85;;;18.20;99.90;;;;;;5072453;28;20067;-39
2023/09/17 02:25:06;;;;;;;8.32;6.88;;;18.20;99.90;;;;;;5073890;28;20074;-39
2023/09/17 02:27:33;;;;;;;9.68;7.35;;;18.20;99.90;;;;;;5074282;28;20116;-38
2023/09/17 02:29:58;;;;;;;11.10;7.50;;;18.20;99.90;;;;;;5073571;28;20032;-38
2023/09/17 02:32:24;;;;;;;10.30;7.43;;;18.20;99.90;;;;;;5072487;28;20033;-39
2023/09/17 02:34:49;;;;;;;8.18;6.95;;;18.20;99.90;;;;;;5074686;28;20038;-38
2023/09/17 02:37:15;;;;;;;10.38;7.18;;;18.20;99.90;;;;;;5069291;28;20037;-53
2023/09/17 02:39:41;;;;;;;9.10;7.63;;;18.30;99.90;;;;;;5063838;28;20508;-53
2023/09/17 02:42:07;;;;;;;11.75;7.90;;;18.30;99.90;;;;;;5060399;28;20318;-52
2023/09/17 02:44:32;;;;;;;11.75;9.10;;;18.30;99.90;;;;;;5072500;28;20034;-53
2023/09/17 02:46:58;;;;;;;15.73;11.45;;;18.30;99.90;;;;;;5074391;28;20025;-53
2023/09/17 02:49:24;;;;;;;16.23;9.98;;;18.10;99.90;;;;;;5069129;28;20032;-54
2023/09/17 02:51:52;;;;;;;16.67;9.95;;;18.10;99.90;;;;;;5074506;28;20454;-54
2023/09/17 02:54:18;;;;;;;12.68;8.88;;;18.10;99.90;;;;;;5071935;28;20389;-53
2023/09/17 02:56:44;;;;;;;13.18;9.38;;;18.00;99.90;;;;;;5070456;28;20035;-54
2023/09/17 02:59:10;;;;;;;13.55;8.85;;;18.00;99.90;;;;;;5071635;28;20025;-51
2023/09/17 03:01:35;;;;;;;16.15;8.93;;;18.10;99.90;;;;;;5073409;28;20013;-51
2023/09/17 03:04:04;;;;;;;13.25;8.05;;;18.10;99.90;;;;;;5069401;28;20028;-51
2023/09/17 03:06:30;;;;;;;8.73;6.88;;;18.00;99.90;;;;;;5070359;28;20028;-53
2023/09/17 03:08:56;;;;;;;13.85;7.90;;;18.10;99.90;;;;;;5071897;28;20102;-53
2023/09/17 03:11:23;;;;;;;14.32;8.38;;;18.10;99.90;;;;;;5070864;28;20078;-53
2023/09/17 03:13:50;;;;;;;10.27;7.70;;;18.00;99.90;;;;;;5070991;28;20074;-52
2023/09/17 03:16:16;;;;;;;11.68;8.60;;;17.90;99.90;;;;;;5071413;28;20470;-54
2023/09/17 03:18:45;;;;;;;12.55;8.32;;;17.80;99.90;;;;;;5073711;28;20100;-54
2023/09/17 03:21:11;;;;;;;13.20;7.90;;;17.80;99.90;;;;;;5073677;28;20056;-53
2023/09/17 03:23:38;;;;;;;10.53;7.87;;;17.80;99.90;;;;;;5074011;28;20028;-53
2023/09/17 03:26:04;;;;;;;15.98;8.98;;;17.70;99.90;;;;;;5070484;28;20032;-54
2023/09/17 03:28:31;;;;;;;17.65;9.50;;;17.70;99.90;;;;;;5072423;28;20481;-53
2023/09/17 03:30:57;;;;;;;10.00;8.33;;;17.60;99.90;;;;;;5073917;28;20389;-55
2023/09/17 03:33:23;;;;;;;14.27;9.10;;;17.50;99.90;;;;;;5071096;28;20035;-54
2023/09/17 03:35:49;;;;;;;11.57;8.93;;;17.40;99.90;;;;;;5072966;28;20116;-54
2023/09/17 03:38:15;;;;;;;14.82;9.57;;;17.30;99.90;;;;;;5073629;28;20036;-53
2023/09/17 03:40:41;;;;;;;18.13;10.35;;;17.30;99.90;;;;;;5072248;28;20029;-53
2023/09/17 03:43:08;;;;;;;12.57;10.10;;;17.10;99.90;;;;;;5070989;28;20523;-54
2023/09/17 03:45:34;;;;;;;18.90;11.13;;;17.00;99.90;;;;;;5073885;28;20465;-56
2023/09/17 03:48:00;;;;;;;19.33;11.00;;;16.90;99.90;;;;;;5073342;28;20064;-51
2023/09/17 03:50:27;;;;;;;16.45;10.85;;;16.80;99.90;;;;;;5072303;28;20393;-54
2023/09/17 03:52:56;;;;;;;17.13;11.80;;;16.80;99.90;;;;;;5073175;28;20040;-53
2023/09/17 03:55:23;;;;;;;15.30;11.30;;;16.70;99.90;;;;;;5073211;28;20063;-49
2023/09/17 03:57:49;;;;;;;18.52;11.68;;;16.70;99.90;;;;;;5068864;28;20032;-58
2023/09/17 04:00:15;;;;;;;20.00;11.50;;;16.60;99.90;;;;;;5070649;28;20494;-53
2023/09/17 04:02:42;;;;;;;22.15;11.73;;;16.50;99.90;;;;;;5073079;28;20051;-54
2023/09/17 04:05:13;;;;;;;17.13;11.13;;;16.60;99.90;;;;;;5073085;28;20036;-39
2023/09/17 04:07:41;;;;;;;26.33;12.05;;;16.50;99.90;;;;;;5060807;28;20398;-54
2023/09/17 04:10:07;;;;;;;;;;;16.50;99.90;;;;;;5073429;28;20635;-55
2023/09/17 04:12:34;;;;;;;16.55;11.45;;;16.50;99.90;;;;;;5069285;28;19954;-54
2023/09/17 04:15:00;;;;;;;20.27;12.43;;;16.50;99.90;;;;;;5071685;28;20107;-54
2023/09/17 04:17:26;;;;;;;17.85;12.23;;;16.50;99.90;;;;;;5070629;28;20111;-53
2023/09/17 04:19:52;;;;;;;20.33;12.02;;;16.60;99.90;;;;;;5070727;28;20028;-51
2023/09/17 04:22:18;;;;;;;20.60;11.65;;;16.60;99.90;;;;;;5060728;28;20037;-55
2023/09/17 04:24:44;;;;;;;17.05;11.52;;;16.50;99.90;;;;;;5072652;28;20060;-53
2023/09/17 04:27:11;;;;;;;18.13;11.65;;;16.60;99.90;;;;;;5070846;28;20496;-53
2023/09/17 04:29:37;;;;;;;19.35;11.50;;;16.60;99.90;;;;;;5072994;28;20029;-54
2023/09/17 04:32:03;;;;;;;19.08;12.02;;;16.50;99.90;;;;;;5071640;28;20031;-53
2023/09/17 04:34:29;;;;;;;14.10;10.15;;;16.50;99.90;;;;;;5071817;28;20778;-54
2023/09/17 04:36:58;;;;;;;12.80;10.23;;;16.50;99.90;;;;;;5072931;28;20529;-54
2023/09/17 04:39:24;;;;;;;14.38;10.32;;;16.50;99.90;;;;;;5072005;28;20478;-54
2023/09/17 04:41:50;;;;;;;11.48;9.13;;;16.40;99.90;;;;;;5068575;28;20036;-54
2023/09/17 04:44:16;;;;;;;11.93;9.27;;;16.40;99.90;;;;;;5070783;28;20025;-50
2023/09/17 04:46:46;;;;;;;13.25;9.55;;;16.40;99.90;;;;;;5055542;28;20058;-54
2023/09/17 04:49:12;;;;;;;12.82;8.98;;;16.40;99.90;;;;;;5070310;28;20065;-54
2023/09/17 04:51:37;;;;;;;18.17;9.10;;;16.30;99.90;;;;;;5069520;28;20036;-51
2023/09/17 04:54:04;;;;;;;15.93;9.00;;;16.40;99.90;;;;;;5070795;28;20580;-54
2023/09/17 04:56:31;;;;;;;13.40;9.17;;;16.40;99.90;;;;;;5071318;28;20481;-56
2023/09/17 04:59:00;;;;;;;16.75;9.23;;;16.40;99.90;;;;;;5066211;28;20294;-54
2023/09/17 05:01:26;;;;;;;13.88;9.10;;;16.30;99.90;;;;;;5069376;28;20032;-53
2023/09/17 05:03:52;;;;;;;11.00;8.45;;;16.30;99.90;;;;;;5070513;28;20029;-40
2023/09/17 05:06:17;;;;;;;14.63;8.93;;;16.30;99.90;;;;;;5068284;28;20028;-42
2023/09/17 05:08:43;;;;;;;12.05;8.70;;;16.30;99.90;;;;;;5071171;28;20023;-40
2023/09/17 05:11:09;;;;;;;12.57;8.13;;;16.30;99.90;;;;;;5070186;28;20082;-40
2023/09/17 05:13:35;;;;;;;10.45;7.85;;;16.30;99.90;;;;;;5067115;28;20021;-41
2023/09/17 05:16:01;;;;;;;10.85;7.65;;;16.20;99.90;;;;;;5069274;28;20024;-41
2023/09/17 05:18:27;;;;;;;11.95;8.15;;;16.30;99.90;;;;;;5071336;28;20058;-54
2023/09/17 05:20:53;;;;;;;12.32;8.50;;;16.40;99.90;;;;;;5069875;28;20021;-53
2023/09/17 05:23:19;;;;;;;10.15;7.72;;;16.40;99.90;;;;;;5071087;28;20528;-53
2023/09/17 05:25:45;;;;;;;10.85;7.55;;;16.40;99.90;;;;;;5071499;28;20051;-41
2023/09/17 05:28:11;;;;;;;13.25;8.05;;;16.50;99.90;;;;;;5066476;28;20067;-49
2023/09/17 05:30:41;;;;;;;10.85;8.00;;;16.50;99.90;;;;;;5070851;28;20059;-54
2023/09/17 05:33:06;;;;;;;12.00;7.68;;;16.50;99.90;;;;;;5071564;28;20032;-54
2023/09/17 05:35:39;;;;;;;13.30;8.35;;;16.50;99.90;;;;;;5073769;28;20027;-49
2023/09/17 05:38:05;;;;;;;11.63;8.43;;;16.40;99.90;;;;;;5074703;28;20072;-54
2023/09/17 05:40:30;;;;;;;21.58;8.88;;;16.40;99.90;;;;;;5073152;28;20023;-53
2023/09/17 05:42:59;;;;;;;21.98;10.07;;;16.40;99.90;;;;;;5071615;28;20028;-52
2023/09/17 05:45:26;;;;;;;21.25;9.88;;;16.00;99.90;;;;;;5073276;28;20504;-53
2023/09/17 05:47:51;;;;;;;19.95;11.10;;;15.70;99.90;;;;;;5074351;28;20496;-53
2023/09/17 05:50:17;;;;;;;18.90;10.65;;;15.40;99.90;;;;;;5074063;28;20123;-55
2023/09/17 05:52:43;;;;;;;20.75;10.95;;;15.20;99.90;;;;;;5073367;28;20377;-53
2023/09/17 05:55:08;;;;;;;18.50;11.48;;;15.00;99.90;;;;;;5075518;28;20438;-51
2023/09/17 05:57:34;;;;;;;21.98;12.88;;;14.70;99.90;;;;;;5074324;28;20028;-52
2023/09/17 06:00:03;;;;;;;26.55;13.43;;;14.70;99.90;;;;;;5068681;28;20024;-46
2023/09/17 06:02:29;;;;;;;21.55;13.40;;;14.60;99.90;;;;;;5073558;28;20021;-51
2023/09/17 06:04:55;;;;;;;27.50;12.95;;;14.70;99.90;;;;;;5060425;28;20028;-52
2023/09/17 06:07:21;;;;;;;24.40;14.60;;;14.70;99.90;;;;;;5067512;28;20025;-50
2023/09/17 06:09:47;;;;;;;25.75;14.95;;;14.70;99.90;;;;;;5075153;28;20066;-48
2023/09/17 06:12:13;;;;;;;33.08;15.73;;;14.60;99.90;;;;;;5071227;28;20449;-51
2023/09/17 06:14:39;;;;;;;26.83;15.00;;;14.70;99.90;;;;;;5068712;28;20027;-51
2023/09/17 06:17:05;;;;;;;31.02;15.38;;;14.70;99.90;;;;;;5067854;28;20374;-51
2023/09/17 06:19:33;;;;;;;25.60;15.18;;;14.70;99.90;;;;;;5067197;28;20031;-52
2023/09/17 06:21:59;;;;;;;26.70;15.02;;;14.70;99.90;;;;;;5071833;28;20031;-48
2023/09/17 06:24:24;;;;;;;27.63;15.25;;;14.70;99.90;;;;;;5070559;28;20369;-53
2023/09/17 06:26:50;;;;;;;28.20;16.38;;;14.70;99.90;;;;;;5066256;28;20028;-53
2023/09/17 06:29:16;;;;;;;32.90;16.00;;;14.70;99.90;;;;;;5072682;28;20024;-53
2023/09/17 06:31:42;;;;;;;28.75;15.65;;;14.70;99.90;;;;;;5071242;28;20094;-49
2023/09/17 06:34:09;;;;;;;30.50;16.60;;;14.70;99.90;;;;;;5073999;28;20032;-51
2023/09/17 06:36:35;;;;;;;33.00;16.70;;;14.70;99.90;;;;;;5074077;28;20063;-52
2023/09/17 06:39:02;;;;;;;35.75;17.42;;;14.70;99.90;;;;;;5068962;28;20439;-49
2023/09/17 06:41:28;;;;;;;33.50;16.63;;;14.80;99.90;;;;;;5071836;28;20025;-51
2023/09/17 06:43:53;;;;;;;26.25;15.65;;;14.80;99.90;;;;;;5071827;28;20405;-49
2023/09/17 06:46:19;;;;;;;34.90;16.63;;;14.70;99.90;;;;;;5069095;28;20025;-51
2023/09/17 06:48:45;;;;;;;35.72;18.38;;;14.80;99.90;;;;;;5071406;28;20032;-47
2023/09/17 06:51:10;;;;;;;36.72;16.15;;;14.70;99.90;;;;;;5073176;28;20091;-52
2023/09/17 06:53:36;;;;;;;33.63;16.55;;;14.60;99.90;;;;;;5067686;28;20056;-53
2023/09/17 06:56:02;;;;;;;38.85;18.13;;;14.70;99.90;;;;;;5070380;28;20040;-53
2023/09/17 06:58:28;;;;;;;37.63;17.23;;;14.70;99.90;;;;;;5074815;28;20381;-52
2023/09/17 07:00:54;;;;;;;34.83;17.95;;;14.60;99.90;;;;;;5071378;28;20035;-52
2023/09/17 07:03:20;;;;;;;41.88;17.48;;;14.70;99.90;;;;;;5074293;28;20032;-53
2023/09/17 07:05:45;;;;;;;37.83;17.88;;;14.70;99.90;;;;;;5070789;28;20020;-52
2023/09/17 07:08:11;;;;;;;38.13;18.85;;;14.80;99.90;;;;;;5073112;28;20070;-53
2023/09/17 07:10:37;;;;;;;34.67;17.38;;;14.80;99.90;;;;;;5069876;28;20086;-52
2023/09/17 07:13:03;;;;;;;37.45;18.08;;;14.80;99.90;;;;;;5068285;28;20024;-50
2023/09/17 07:15:47;;;;;;;39.47;18.80;;;14.80;99.90;;;;;;5073775;28;20025;-51
2023/09/17 07:18:13;;;;;;;38.20;18.20;;;14.70;99.90;;;;;;5072545;28;20020;-52
2023/09/17 07:20:39;;;;;;;38.63;19.30;;;14.80;99.90;;;;;;5074006;28;20530;-53
2023/09/17 07:23:05;;;;;;;38.85;17.88;;;14.80;99.90;;;;;;5071831;28;20024;-53
2023/09/17 07:25:33;;;;;;;39.53;17.63;;;14.80;99.90;;;;;;5066229;28;20466;-54
2023/09/17 07:28:04;;;;;;;35.08;17.20;;;14.80;99.90;;;;;;5068294;28;20032;-52
2023/09/17 07:30:34;;;;;;;33.35;18.05;;;14.80;99.90;;;;;;5072949;28;20495;-46
2023/09/17 07:33:00;;;;;;;39.35;18.88;;;14.90;99.90;;;;;;5072174;28;20365;-53
2023/09/17 07:35:26;;;;;;;35.13;16.85;;;14.90;99.90;;;;;;5073606;28;20025;-51
2023/09/17 07:37:52;;;;;;;39.50;18.98;;;14.90;99.90;;;;;;5072243;28;20031;-54
2023/09/17 07:40:18;;;;;;;38.15;16.88;;;14.90;99.90;;;;;;5072115;28;20110;-36
2023/09/17 07:42:44;;;;;;;35.95;17.90;;;14.90;99.90;;;;;;5073028;28;20028;-36
2023/09/17 07:45:10;;;;;;;36.63;18.08;;;15.00;99.90;;;;;;5073334;28;20029;-36
2023/09/17 07:47:35;;;;;;;40.97;19.35;;;15.00;99.90;;;;;;5070133;28;20029;-37
2023/09/17 07:50:01;;;;;;;36.45;18.10;;;15.10;99.90;;;;;;5072313;28;20028;-36
2023/09/17 07:52:27;;;;;;;35.05;17.38;;;15.10;99.90;;;;;;5074094;28;20463;-37
2023/09/17 07:54:52;;;;;;;35.75;16.95;;;15.20;99.90;;;;;;5071812;28;20038;-39
2023/09/17 07:57:18;;;;;;;36.78;17.83;;;15.30;99.90;;;;;;5072899;28;20035;-37
2023/09/17 07:59:46;;;;;;;32.38;16.13;;;15.30;99.90;;;;;;5070169;28;20534;-38
2023/09/17 08:02:12;;;;;;;29.58;15.93;;;15.30;99.90;;;;;;5068491;28;20478;-40
2023/09/17 08:04:38;;;;;;;37.50;18.02;;;15.40;99.90;;;;;;5071193;28;20074;-38
2023/09/17 08:07:04;;;;;;;33.85;18.27;;;15.40;99.90;;;;;;5071867;28;20485;-37
2023/09/17 08:09:30;;;;;;;34.53;16.70;;;15.40;99.90;;;;;;5073254;28;20090;-37
2023/09/17 08:11:55;;;;;;;31.08;17.35;;;15.40;99.90;;;;;;5070286;28;20020;-39
2023/09/17 08:14:22;;;;;;;35.20;17.42;;;15.50;99.90;;;;;;5071162;28;20392;-37
2023/09/17 08:16:49;;;;;;;36.13;18.08;;;15.50;99.90;;;;;;5073111;28;20028;-37
2023/09/17 08:19:15;;;;;;;34.63;16.50;;;15.50;99.90;;;;;;5072947;28;20029;-38
2023/09/17 08:21:41;;;;;;;30.73;15.05;;;15.40;99.90;;;;;;5071524;28;20112;-39
2023/09/17 08:24:07;;;;;;;40.33;17.45;;;15.40;99.90;;;;;;5069077;28;20052;-37
2023/09/17 08:26:32;;;;;;;35.30;17.17;;;15.40;99.90;;;;;;5069918;28;20047;-38
2023/09/17 08:29:00;;;;;;;35.72;16.63;;;15.40;99.90;;;;;;5067485;28;20038;-38
2023/09/17 08:31:27;;;;;;;33.00;15.38;;;15.40;99.90;;;;;;5068776;28;20086;-38
2023/09/17 08:33:53;;;;;;;29.25;14.82;;;15.40;99.90;;;;;;5068958;28;20032;-37
2023/09/17 08:36:21;;;;;;;41.05;15.57;;;15.40;99.90;;;;;;5058521;28;20029;-37
2023/09/17 08:38:49;;;;;;;;;;;15.40;99.90;;;;;;5058653;28;20032;-38
2023/09/17 08:41:15;;;;;;;;;;;15.40;99.90;;;;;;5066116;28;19966;-37
2023/09/17 08:43:42;;;;;;;25.25;12.35;;;15.30;99.90;;;;;;5069563;28;20027;-39
2023/09/17 08:46:07;;;;;;;26.52;12.55;;;15.30;99.90;;;;;;5067041;28;20032;-37
2023/09/17 08:48:33;;;;;;;28.73;13.15;;;15.30;99.90;;;;;;5072009;28;20025;-38
2023/09/17 08:50:59;;;;;;;27.48;13.93;;;15.40;99.90;;;;;;5070692;28;20033;-36
2023/09/17 08:53:30;;;;;;;27.25;14.00;;;15.30;99.90;;;;;;5069931;28;20457;-37
2023/09/17 08:55:58;;;;;;;31.58;14.55;;;15.20;99.90;;;;;;5069207;28;20039;-37
2023/09/17 08:58:29;;;;;;;31.95;13.50;;;15.30;99.90;;;;;;5069187;28;20063;-37
2023/09/17 09:00:59;;;;;;;24.30;12.45;;;15.30;99.90;;;;;;5067320;28;20029;-37
2023/09/17 09:03:26;;;;;;;25.33;12.95;;;15.30;99.90;;;;;;5070614;28;20103;-38
2023/09/17 09:05:55;;;;;;;;;;;15.30;99.90;;;;;;5072042;28;20024;-36
2023/09/17 09:08:21;;;;;;;28.58;12.63;;;15.40;99.90;;;;;;5071511;28;19908;-37
2023/09/17 09:10:47;;;;;;;28.98;11.18;;;15.40;99.90;;;;;;5075834;28;20025;-39
2023/09/17 09:13:13;;;;;;;21.85;10.63;;;15.50;99.90;;;;;;5072981;28;20040;-39
2023/09/17 09:15:40;;;;;;;25.27;12.48;;;15.50;99.90;;;;;;5072697;28;20025;-38
2023/09/17 09:18:06;;;;;;;24.30;12.15;;;15.60;99.90;;;;;;5074210;28;20024;-37
2023/09/17 09:20:32;;;;;;;24.60;13.05;;;15.60;99.90;;;;;;5071754;28;20370;-37
2023/09/17 09:22:59;;;;;;;25.98;12.73;;;15.60;99.90;;;;;;5070377;28;20532;-37
2023/09/17 09:25:28;;;;;;;31.08;13.88;;;15.50;99.90;;;;;;5069531;28;20032;-38
2023/09/17 09:27:58;;;;;;;30.38;13.95;;;15.40;99.90;;;;;;5074918;28;20021;-37
2023/09/17 09:30:25;;;;;;;28.50;15.02;;;15.40;99.90;;;;;;5066535;28;20025;-39
2023/09/17 09:32:51;;;;;;;38.97;14.93;;;15.50;99.90;;;;;;5070025;28;20388;-38
2023/09/17 09:35:17;;;;;;;36.58;15.80;;;15.60;99.90;;;;;;5071689;28;20036;-50
2023/09/17 09:37:43;;;;;;;31.02;14.57;;;15.60;99.90;;;;;;5069992;28;20085;-50
2023/09/17 09:40:09;;;;;;;38.35;16.48;;;15.70;99.90;;;;;;5070361;28;20028;-52
2023/09/17 09:42:35;;;;;;;27.55;14.30;;;15.70;99.90;;;;;;5073158;28;20101;-51
2023/09/17 09:45:02;;;;;;;32.42;14.25;;;15.80;99.90;;;;;;5070176;28;20583;-50
2023/09/17 09:47:30;;;;;;;31.60;14.13;;;15.90;99.90;;;;;;5070682;28;20021;-46
2023/09/17 09:49:56;;;;;;;25.58;14.18;;;15.90;99.90;;;;;;5071627;28;20035;-51
2023/09/17 09:52:24;;;;;;;28.05;15.25;;;16.00;99.90;;;;;;5071024;28;20029;-52
2023/09/17 09:54:49;;;;;;;26.15;13.80;;;16.00;99.90;;;;;;5066902;28;20025;-50
2023/09/17 09:57:18;;;;;;;34.50;15.30;;;16.00;99.90;;;;;;5060744;28;20024;-47
2023/09/17 09:59:46;;;;;;;32.80;14.45;;;16.10;99.90;;;;;;5073088;28;20020;-52
2023/09/17 10:02:15;;;;;;;37.35;17.00;;;16.20;99.90;;;;;;5067709;28;20028;-48
2023/09/17 10:04:42;;;;;;;32.78;17.50;;;16.20;99.90;;;;;;5074249;28;20115;-51
2023/09/17 10:07:08;;;;;;;32.88;15.70;;;16.20;99.90;;;;;;5074167;28;20032;-49
2023/09/17 10:09:34;;;;;;;29.27;15.15;;;16.20;99.90;;;;;;5070055;28;20104;-52
2023/09/17 10:12:00;;;;;;;25.45;14.63;;;16.20;99.90;;;;;;5073542;28;20032;-51
2023/09/17 10:14:26;;;;;;;28.63;15.40;;;16.20;99.90;;;;;;5071513;28;20073;-49
2023/09/17 10:16:56;;;;;;;32.58;16.52;;;16.30;99.90;;;;;;5070138;28;20021;-53
2023/09/17 10:19:23;;;;;;;30.15;15.25;;;16.30;99.90;;;;;;5072592;28;20028;-49
2023/09/17 10:21:51;;;;;;;25.58;14.63;;;16.30;99.90;;;;;;5066067;28;20508;-50
2023/09/17 10:24:18;;;;;;;36.58;16.13;;;16.40;99.90;;;;;;5075127;28;20111;-50
2023/09/17 10:26:45;;;;;;;29.03;16.50;;;16.40;99.90;;;;;;5074975;28;20550;-51
2023/09/17 10:29:12;;;;;;;35.85;15.88;;;16.30;99.90;;;;;;5073884;28;20340;-50
2023/09/17 10:31:40;;;;;;;27.55;15.93;;;16.40;99.90;;;;;;5070593;28;20044;-47
2023/09/17 10:34:08;;;;;;;29.30;16.15;;;16.40;99.90;;;;;;5072596;28;20059;-48
2023/09/17 10:36:37;;;;;;;27.27;15.40;;;16.40;99.90;;;;;;5072395;28;20051;-44
2023/09/17 10:39:06;;;;;;;37.58;15.98;;;16.40;99.90;;;;;;5073791;28;20397;-52
2023/09/17 10:41:36;;;;;;;35.72;17.80;;;16.50;99.90;;;;;;5074601;28;20032;-48
2023/09/17 10:44:03;;;;;;;30.30;16.52;;;16.60;99.90;;;;;;5073593;28;20044;-45
2023/09/17 10:46:30;;;;;;;;;;;16.50;99.90;;;;;;5071336;28;20031;-49
2023/09/17 10:48:57;;;;;;;37.63;16.65;;;16.60;99.90;;;;;;5070420;28;20218;-50
2023/09/17 10:51:24;;;;;;;31.65;17.00;;;16.60;99.90;;;;;;5067856;28;20032;-49
2023/09/17 10:53:50;;;;;;;39.80;17.57;;;16.70;99.90;;;;;;5069107;28;20048;-49
2023/09/17 10:56:16;;;;;;;39.40;18.48;;;16.70;99.90;;;;;;5054314;28;20060;-51
2023/09/17 10:58:46;;;;;;;35.25;17.77;;;16.70;99.90;;;;;;5069354;28;20377;-50
2023/09/17 11:01:34;;;;;;;38.97;18.63;;;16.70;99.90;;;;;;5063853;28;20024;-52
2023/09/17 11:04:13;;;;;;;34.72;17.80;;;16.70;99.90;;;;;;5066268;28;20040;-46
2023/09/17 11:06:41;;;;;;;34.45;17.70;;;16.70;99.90;;;;;;5067235;28;20107;-51
2023/09/17 11:09:07;;;;;;;34.22;17.55;;;16.70;99.90;;;;;;5073900;28;20052;-48
2023/09/17 11:11:37;;;;;;;28.90;16.10;;;16.80;99.90;;;;;;5070492;28;20438;-52
2023/09/17 11:14:04;;;;;;;31.38;15.90;;;16.80;99.90;;;;;;5071263;28;20107;-49
2023/09/17 11:16:32;;;;;;;38.72;17.80;;;16.90;99.90;;;;;;5073851;28;20366;-49
2023/09/17 11:19:08;;;;;;;;;;;16.90;99.90;;;;;;5074526;28;20033;-62
2023/09/17 11:21:37;;;;;;;40.72;18.83;;;17.00;99.90;;;;;;5072807;28;19908;-50
2023/09/17 11:24:06;;;;;;;36.78;18.27;;;17.00;99.90;;;;;;5071555;28;21743;-50
2023/09/17 11:26:35;;;;;;;32.05;17.35;;;17.00;99.90;;;;;;5074055;28;20554;-47
2023/09/17 11:29:05;;;;;;;32.13;17.27;;;17.10;99.90;;;;;;5068968;28;20038;-51
2023/09/17 11:31:35;;;;;;;39.08;19.50;;;17.10;99.90;;;;;;5072871;28;20063;-52
2023/09/17 11:34:05;;;;;;;46.97;19.10;;;17.20;99.90;;;;;;5071966;28;20024;-51
2023/09/17 11:36:32;;;;;;;43.72;20.80;;;17.20;99.90;;;;;;5070287;28;20056;-47
2023/09/17 11:39:04;;;;;;;50.90;19.80;;;17.20;99.90;;;;;;5073320;28;20100;-51
2023/09/17 11:41:31;;;;;;;43.55;20.90;;;17.10;99.90;;;;;;5071401;28;20024;-50
2023/09/17 11:43:57;;;;;;;41.60;19.10;;;17.20;99.90;;;;;;5069138;28;20412;-47
2023/09/17 11:46:23;;;;;;;46.28;19.05;;;17.30;99.90;;;;;;5070470;28;20055;-48
2023/09/17 11:48:49;;;;;;;53.08;21.80;;;17.30;99.90;;;;;;5070065;28;20063;-47
2023/09/17 11:51:24;;;;;;;44.08;20.75;;;17.40;99.90;;;;;;5072291;28;20496;-50
2023/09/17 11:53:53;;;;;;;49.75;21.23;;;17.50;99.90;;;;;;5071184;28;20488;-48
2023/09/17 11:56:19;;;;;;;40.88;19.33;;;17.60;99.90;;;;;;5073417;28;20036;-50
2023/09/17 11:58:46;;;;;;;45.55;19.15;;;17.60;99.90;;;;;;5070155;28;20544;-48
2023/09/17 12:01:13;;;;;;;47.40;20.50;;;17.70;99.90;;;;;;5071264;28;20477;-49
2023/09/17 12:03:39;;;;;;;51.63;20.73;;;17.70;99.90;;;;;;5069171;28;20293;-49
2023/09/17 12:06:04;;;;;;;49.65;22.63;;;17.70;99.90;;;;;;5071430;28;20017;-49
2023/09/17 12:08:31;;;;;;;47.05;20.27;;;17.80;99.90;;;;;;5071946;28;20031;-48
2023/09/17 12:11:02;;;;;;;40.97;20.90;;;17.80;99.90;;;;;;5072188;28;20097;-47
2023/09/17 12:13:31;;;;;;;49.05;18.83;;;17.80;99.90;;;;;;5070582;28;20044;-48
2023/09/17 12:15:57;;;;;;;49.38;20.58;;;17.80;99.90;;;;;;5072668;28;20028;-45
2023/09/17 12:18:26;;;;;;;49.33;20.63;;;17.80;99.90;;;;;;5070018;28;20111;-49
2023/09/17 12:20:57;;;;;;;48.35;21.13;;;17.90;99.90;;;;;;5065312;28;20029;-44
2023/09/17 12:23:41;;;;;;;52.45;20.77;;;17.90;99.90;;;;;;5072114;28;20182;-47
2023/09/17 12:26:06;;;;;;;40.75;17.88;;;18.00;99.90;;;;;;5063807;28;20408;-45
2023/09/17 12:28:32;;;;;;;64.22;23.42;;;18.00;99.90;;;;;;5071286;28;20020;-49
2023/09/17 12:30:58;;;;;;;45.47;20.58;;;18.00;99.90;;;;;;5070120;28;20085;-45
2023/09/17 12:33:24;;;;;;;52.40;21.10;;;18.10;99.90;;;;;;5070963;28;20032;-49